Latest Coastal Weather Observations for Broome

IDW60701

Issued at 2:32 pm WST Friday 19 December 2014 (issued every 10 minutes, with the page automatically refreshed every 10 minutes)

About coastal observations | Map of coastal stations | Coastal observations for WA | Marine services | Other Formats
Station Details ID: 003003 Name: BROOME AIRPORT Lat: -17.95 Lon: 122.24 Height: 7.42 m
Data from the previous 72 hours. | See also: Recent months at Broome
Date/Time
WST
Temp

°C
Wind Pressure Rain
since 9am
mm
Weather Cloud Vis
km
Sea
Height
m
Swell
Dir
 
Speed
knots
Gust
knots
hPa Trend Height
m
Period
s
Dir
19/02:30pm 34.4 SW 8 11 1008.2 - 0.0 - Mostly clear 10 - - - -
19/02:00pm 35.0 S 7 11 1008.3 - 0.0 - Mostly clear 10 - - - -
19/01:30pm 35.2 S 7 11 1008.7 - 0.0 - Partly cloudy 10 - - - -
19/01:00pm 33.8 S 8 12 1009.2 - 0.0 - Mostly clear 10 - - - -
19/12:00pm 34.0 S 6 9 1010.1 F 0.0 Fine Mostly cloudy 40 - - - -
19/11:30am 33.7 SSE 7 9 1010.6 - 0.0 - Mostly clear 10 - - - -
19/11:00am 32.7 SE 5 6 1010.8 - 0.0 - - 10 - - - -
19/10:30am 32.2 SSE 5 7 1011.1 - 0.0 - - 10 - - - -
19/10:00am 31.2 SSE 6 8 1011.4 - 0.0 - Mostly clear 10 - - - -
19/09:30am 32.7 SSE 7 10 1011.6 - 0.0 - Mostly clear 10 - - - -
19/09:00am 32.7 SE 8 11 1011.8 R 0.0 Fine Mostly cloudy 40 - - - -
19/08:30am 31.5 SE 4 7 1011.9 - 0.0 - Mostly clear 10 - - - -
19/08:00am 30.8 SSE 6 9 1011.8 - 0.0 - - 10 - - - -
19/07:30am 30.7 SE 4 7 1011.5 - 0.0 - - 10 - - - -
19/07:00am 29.7 NNE 2 4 1010.8 - 0.0 - - 10 - - - -
19/06:30am 30.0 CALM 0 0 1010.2 - 0.0 - - 10 - - - -
19/06:00am 28.5 NNE 3 4 1009.7 F 0.0 Distant precip. Mostly cloudy 40 - - - -
19/05:30am 28.6 W 4 6 1009.3 - 0.0 - Mostly clear 10 - - - -
19/05:00am 28.6 S 5 8 1009.5 - 0.0 - - 10 - - - -
19/04:30am 27.7 ESE 14 19 1010.5 - 0.0 - - 10 - - - -
19/04:16am 27.4 ESE 15 20 1010.5 - 0.0 - Partly cloudy 10 - - - -
19/04:00am 28.8 SE 5 9 1010.1 - 0.0 - Partly cloudy 10 - - - -
19/03:30am 26.7 SE 3 3 1009.2 - 0.0 - - 10 - - - -
19/03:00am 27.5 CALM 0 4 1008.9 - 0.0 - - 10 - - - -
19/02:30am 26.9 NW 1 3 1009.2 - 0.0 - - 10 - - - -
19/02:00am 26.5 N 2 4 1009.3 - 0.0 - - 10 - - - -
19/01:30am 27.2 N 3 4 1009.1 - 0.0 - - 10 - - - -
19/01:00am 27.2 N 4 5 1009.5 - 0.0 - - 10 - - - -
19/12:30am 27.6 NNE 5 6 1010.0 - 0.0 - - 10 - - - -
19/12:00am 27.9 NE 13 20 1010.7 - 0.0 - Cloudy 10 - - - -
 
Date/Time
WST
Temp

°C
Wind Pressure Rain
since 9am
mm
Weather Cloud Vis
km
Sea
Height
m
Swell
Dir
 
Speed
knots
Gust
knots
hPa Trend Height
m
Period
s
Dir
18/11:30pm 29.8 N 5 8 1010.9 - 0.0 - Partly cloudy 10 - - - -
18/11:00pm 29.2 NE 6 9 1011.3 - 0.0 - Partly cloudy 10 - - - -
18/10:30pm 29.9 N 5 7 1011.2 - 0.0 - Partly cloudy 10 - - - -
18/10:00pm 29.9 WNW 7 9 1010.1 - 0.0 - Partly cloudy 10 - - - -
18/09:30pm 30.0 W 7 10 1009.9 - 0.0 - Partly cloudy 10 - - - -
18/09:00pm 30.1 W 7 9 1009.8 - 0.0 - Cloudy 10 - - - -
18/08:30pm 30.1 W 7 12 1009.0 - 0.0 - Partly cloudy 10 - - - -
18/08:00pm 30.2 W 9 14 1008.6 - 0.0 - - 10 - - - -
18/07:30pm 30.2 W 9 12 1008.1 - 0.0 - - 10 - - - -
18/07:00pm 30.3 W 9 11 1007.8 - 0.0 - - 10 - - - -
18/06:30pm 30.4 W 9 13 1007.3 - 0.0 - - 10 - - - -
18/06:00pm 30.9 WNW 10 13 1006.9 - 0.0 - - 10 - - - -
18/05:30pm 31.5 W 11 13 1006.6 - 0.0 - - 10 - - - -
18/05:00pm 32.0 W 11 15 1006.3 - 0.0 - Mostly clear 10 - - - -
18/04:30pm 32.1 W 11 16 1006.0 - 0.0 - Mostly clear 10 - - - -
18/04:00pm 32.4 W 11 17 1005.9 - 0.0 - Mostly clear 10 - - - -
18/03:30pm 32.7 W 12 17 1006.1 - 0.0 - Mostly clear 10 - - - -
18/03:00pm 33.4 W 12 19 1006.3 F 0.0 Fine Mostly clear 40 - - - -
18/02:30pm 32.9 W 13 17 1007.0 - 0.0 - Mostly clear 10 - - - -
18/02:00pm 32.9 W 11 15 1007.4 - 0.0 - Mostly clear 10 - - - -
18/01:30pm 32.8 W 10 15 1007.8 - 0.0 - Mostly clear 10 - - - -
18/01:00pm 32.8 W 11 16 1008.1 - 0.0 - Mostly clear 10 - - - -
18/12:30pm 32.3 W 10 15 1008.3 - 0.0 - Mostly clear 10 - - - -
18/12:00pm 32.5 WSW 11 13 1008.3 R 0.0 Fine Mostly clear 40 - - - -
18/11:30am 32.5 WNW 9 13 1008.6 - 0.0 - Partly cloudy 10 - - - -
18/11:00am 32.5 WSW 10 14 1008.9 - 0.0 - Partly cloudy 10 - - - -
18/10:30am 32.1 W 9 13 1009.1 - 0.0 - Partly cloudy 10 - - - -
18/10:00am 32.2 WNW 8 13 1009.1 - 0.0 - Mostly clear 10 - - - -
18/09:30am 32.2 W 8 13 1009.3 - 0.0 - Mostly clear 10 - - - -
18/09:00am 31.6 W 9 13 1009.2 R 0.0 Fine Mostly clear 40 - - - -
18/08:30am 31.8 W 8 11 1009.4 - 0.0 - Mostly clear 10 - - - -
18/08:00am 31.5 W 10 14 1009.1 - 0.0 - Mostly clear 10 - - - -
18/07:30am 31.0 WSW 9 12 1009.0 - 0.0 - Mostly clear 10 - - - -
18/07:00am 31.0 WSW 8 12 1008.7 - 0.0 - Mostly clear 10 - - - -
18/06:30am 30.6 W 7 10 1008.4 - 0.0 - Mostly clear 10 - - - -
18/06:00am 30.2 WSW 7 11 1007.9 S 0.0 Fine Partly cloudy 30 - - - -
18/05:30am 29.4 WSW 7 9 1007.4 - 0.0 - Mostly clear 10 - - - -
18/05:00am 29.3 WSW 7 9 1007.3 - 0.0 - Partly cloudy 10 - - - -
18/04:30am 29.4 WSW 8 10 1006.8 - 0.0 - Partly cloudy 10 - - - -
18/04:00am 29.5 WSW 8 12 1006.8 - 0.0 - Partly cloudy 10 - - - -
18/03:30am 29.6 W 9 11 1006.7 - 0.0 - Partly cloudy 10 - - - -
18/03:00am 29.5 WSW 7 12 1006.6 - 0.0 - Cloudy 10 - - - -
18/02:30am 29.6 WSW 8 12 1006.6 - 0.0 - Partly cloudy 10 - - - -
18/02:00am 29.6 WSW 7 11 1006.6 - 0.0 - Partly cloudy 10 - - - -
18/01:30am 29.6 W 8 10 1006.7 - 0.0 - Partly cloudy 10 - - - -
18/01:00am 29.6 W 6 9 1007.1 - 0.0 - Partly cloudy 10 - - - -
18/12:30am 29.6 W 7 11 1007.2 - 0.0 - - 10 - - - -
18/12:00am 29.6 W 7 11 1007.2 - 0.0 - Cloudy 10 - - - -
 
Date/Time
WST
Temp

°C
Wind Pressure Rain
since 9am
mm
Weather Cloud Vis
km
Sea
Height
m
Swell
Dir
 
Speed
knots
Gust
knots
hPa Trend Height
m
Period
s
Dir
17/11:30pm 29.8 W 8 11 1007.5 - 0.0 - Partly cloudy 10 - - - -
17/11:00pm 29.9 W 9 13 1007.7 - 0.0 - Partly cloudy 10 - - - -
17/10:30pm 30.0 W 10 14 1007.8 - 0.0 - Partly cloudy 10 - - - -
17/10:00pm 30.1 W 9 13 1007.9 - 0.0 - Partly cloudy 10 - - - -
17/09:30pm 30.0 W 9 14 1007.8 - 0.0 - Partly cloudy 10 - - - -
17/09:00pm 30.1 W 9 12 1007.5 - 0.0 - Cloudy 10 - - - -
17/08:30pm 30.2 W 8 13 1007.4 - 0.0 - Partly cloudy 10 - - - -
17/08:00pm 30.2 W 9 14 1006.8 - 0.0 - - 10 - - - -
17/07:30pm 30.3 W 11 15 1006.6 - 0.0 - Partly cloudy 10 - - - -
17/07:00pm 30.2 W 9 14 1006.2 - 0.0 - Partly cloudy 10 - - - -
17/06:30pm 30.3 W 10 14 1005.8 - 0.0 - - 10 - - - -
17/06:00pm 30.7 W 10 15 1005.5 - 0.0 - - 10 - - - -
17/05:30pm 31.6 W 9 14 1005.3 - 0.0 - - 10 - - - -
17/05:00pm 31.6 W 12 17 1004.9 - 0.0 - - 10 - - - -
17/04:30pm 31.9 W 13 18 1004.8 - 0.0 - - 10 - - - -
17/04:00pm 32.3 W 11 16 1004.5 - 0.0 - - 10 - - - -
17/03:30pm 32.8 W 12 16 1004.3 - 0.0 - - 10 - - - -
17/03:00pm 33.0 W 12 16 1004.5 F 0.0 Fine Mostly clear 35 - - - -
17/02:30pm 33.0 W 12 17 1004.9 - 0.0 - Mostly clear 10 - - - -
17/02:00pm 32.8 W 13 18 1005.4 - 0.0 - Mostly clear 10 - - - -
17/01:30pm 32.8 W 13 18 1005.9 - 0.0 - Mostly clear 10 - - - -
17/01:00pm 32.9 W 12 18 1006.4 - 0.0 - Mostly clear 10 - - - -
17/12:30pm 33.1 W 11 18 1006.8 - 0.0 - Mostly clear 10 - - - -
17/12:00pm 33.1 W 11 16 1006.9 R 0.0 Fine Mostly clear 35 - - - -
17/11:30am 32.7 W 9 15 1007.4 - 0.0 - Mostly clear 10 - - - -
17/11:00am 32.3 WNW 10 12 1007.7 - 0.0 - Mostly clear 10 - - - -
17/10:30am 32.6 W 9 15 1007.8 - 0.0 - - 10 - - - -
17/10:00am 31.8 W 9 12 1007.9 - 0.0 - Mostly clear 10 - - - -
17/09:30am 31.4 W 9 12 1007.8 - 0.0 - Mostly clear 10 - - - -
17/09:00am 32.0 SSW 7 12 1007.7 R 0.0 Fine Partly cloudy 35 - - - -
17/08:30am 31.1 SW 11 15 1007.6 - 0.0 - Mostly clear 10 - - - -
17/08:00am 31.7 SW 11 15 1007.4 - 0.0 - Mostly clear 10 - - - -
17/07:30am 30.6 WSW 11 16 1007.3 - 0.0 - Mostly clear 10 - - - -
17/07:00am 30.6 WSW 11 16 1007.0 - 0.0 - Mostly clear 10 - - - -
17/06:30am 30.1 WSW 10 13 1006.7 - 0.0 - Mostly clear 10 - - - -
17/06:00am 29.4 WSW 9 13 1006.4 F 0.0 Fine Mostly cloudy 30 - - - -
17/05:30am 29.2 WSW 10 16 1006.2 - 0.0 - Mostly clear 10 - - - -
17/05:00am 29.1 WSW 9 13 1005.7 - 0.0 - Partly cloudy 10 - - - -
17/04:30am 29.0 WSW 7 9 1005.5 - 0.0 - Partly cloudy 10 - - - -
17/04:00am 28.9 WSW 5 6 1005.6 - 0.0 - - 10 - - - -
17/03:30am 29.1 WSW 6 7 1005.6 - 0.0 - Partly cloudy 10 - - - -
17/03:00am 29.1 WSW 6 8 1005.7 - 0.0 - Cloudy 10 - - - -
17/02:30am 29.1 WSW 5 7 1005.9 - 0.0 - Partly cloudy 10 - - - -
17/02:00am 29.0 CALM 0 0 1006.1 - 0.0 - Partly cloudy 10 - - - -
17/01:30am 28.9 WNW 5 7 1006.4 - 0.0 - - 10 - - - -
17/01:00am 29.0 W 5 7 1006.9 - 0.0 - - 10 - - - -
17/12:30am 28.2 W 5 6 1007.1 - 0.0 - - 10 - - - -
17/12:00am 27.6 NW 3 4 1007.6 - 0.0 - - 10 - - - -
 
Date/Time
WST
Temp

°C
Wind Pressure Rain
since 9am
mm
Weather Cloud Vis
km
Sea
Height
m
Swell
Dir
 
Speed
knots
Gust
knots
hPa Trend Height
m
Period
s
Dir
16/11:30pm 27.5 CALM 0 0 1008.1 - 0.0 - - 10 - - - -
16/11:00pm 27.5 N 3 5 1008.6 - 0.0 - - 10 - - - -
16/10:30pm 27.4 NNE 4 6 1009.3 - 0.0 - - 10 - - - -
16/10:00pm 28.0 NNE 9 13 1009.6 - 0.0 - Partly cloudy 10 - - - -
16/09:30pm 28.7 ENE 7 10 1009.8 - 0.0 - Partly cloudy 10 - - - -
16/09:00pm 29.1 N 3 9 1009.5 - 0.0 - Cloudy 10 - - - -
16/08:30pm 29.6 W 6 8 1008.6 - 0.0 - - 10 - - - -
16/08:00pm 29.7 W 7 9 1007.9 - 0.0 - - 10 - - - -
16/07:30pm 30.0 W 8 13 1007.4 - 0.0 - - 10 - - - -
16/07:00pm 30.0 W 9 13 1006.9 - 0.0 - - 10 - - - -
16/06:30pm 30.2 W 8 12 1006.6 - 0.0 - Partly cloudy 10 - - - -
16/06:00pm 30.6 WSW 9 13 1006.5 - 0.0 - Cloudy 10 - - - -
16/05:30pm 31.1 W 12 18 1005.8 - 0.0 - Partly cloudy 10 - - - -
16/05:00pm 31.5 WSW 11 17 1005.4 - 0.0 - Mostly clear 10 - - - -
16/04:30pm 32.3 WSW 12 19 1005.0 - 0.0 - Partly cloudy 10 - - - -
16/04:00pm 31.9 WSW 13 18 1005.0 - 0.0 - Partly cloudy 10 - - - -
16/03:30pm 32.0 WSW 13 19 1005.1 - 0.0 - Mostly clear 10 - - - -
16/03:00pm 32.8 W 13 18 1005.3 F 0.0 Haze Partly cloudy 30 - - - -

Other Formats:

Comma delimited format used in spreadsheet applications
http://www.bom.gov.au/fwo/IDW60701/IDW60701.94203.axf

JavaScript Object Notation format (JSON) in row-major order
http://www.bom.gov.au/fwo/IDW60701/IDW60701.94203.json